createdAt,value
2023-01-17T00:02:53.750Z,9.30
2023-01-17T00:06:15.343Z,10.43
2023-01-17T00:09:36.994Z,9.00
2023-01-17T00:12:39.829Z,8.77
2023-01-17T00:15:42.716Z,9.38
2023-01-17T00:19:05.991Z,9.18
2023-01-17T00:22:38.664Z,9.53
2023-01-17T00:26:00.254Z,8.55
2023-01-17T00:29:03.131Z,9.98
2023-01-17T00:32:07.067Z,9.18
2023-01-17T00:35:10.129Z,8.38
2023-01-17T00:38:15.760Z,9.60
2023-01-17T00:41:18.630Z,9.73
2023-01-17T00:44:40.038Z,8.55
2023-01-17T00:48:05.300Z,10.77
2023-01-17T00:51:27.142Z,8.93
2023-01-17T00:54:48.662Z,8.90
2023-01-17T00:58:10.024Z,9.57
2023-01-17T01:01:31.748Z,8.45
2023-01-17T01:04:53.743Z,9.05
2023-01-17T01:08:15.860Z,8.48
2023-01-17T01:11:42.725Z,9.47
2023-01-17T01:15:03.912Z,7.50
2023-01-17T01:18:30.661Z,7.78
2023-01-17T01:21:52.235Z,8.88
2023-01-17T01:25:13.563Z,8.57
2023-01-17T01:28:36.516Z,8.07
2023-01-17T01:31:58.381Z,9.82
2023-01-17T01:35:01.142Z,8.45
2023-01-17T01:38:04.212Z,8.95
2023-01-17T01:41:07.227Z,8.05
2023-01-17T01:44:47.185Z,8.30
2023-01-17T01:47:51.849Z,8.57
2023-01-17T01:50:54.955Z,8.20
2023-01-17T01:54:09.877Z,7.45
2023-01-17T01:57:17.602Z,8.93
2023-01-17T02:00:32.001Z,6.97
2023-01-17T02:03:37.783Z,9.55
2023-01-17T02:06:47.594Z,7.47
2023-01-17T02:09:53.141Z,8.40
2023-01-17T02:12:57.125Z,7.20
2023-01-17T02:16:44.564Z,8.53
2023-01-17T02:20:07.541Z,8.10
2023-01-17T02:23:25.258Z,6.78
2023-01-17T02:26:37.275Z,6.70
2023-01-17T02:30:13.967Z,6.70
2023-01-17T02:33:29.238Z,6.40
2023-01-17T02:36:46.188Z,7.65
2023-01-17T02:40:10.170Z,7.22
2023-01-17T02:43:16.073Z,7.13
2023-01-17T02:46:18.853Z,6.70
2023-01-17T02:49:26.810Z,6.60
2023-01-17T02:52:59.868Z,7.07
2023-01-17T02:56:44.471Z,6.93
2023-01-17T03:00:05.779Z,7.90
2023-01-17T03:03:14.621Z,6.75
2023-01-17T03:06:31.381Z,7.63
2023-01-17T03:09:34.777Z,6.88
2023-01-17T03:12:39.951Z,7.45
2023-01-17T03:15:43.257Z,7.57
2023-01-17T03:18:46.149Z,7.80
2023-01-17T03:21:49.851Z,9.67
2023-01-17T03:24:52.829Z,5.82
2023-01-17T03:27:55.644Z,6.65
2023-01-17T03:30:58.545Z,5.88
2023-01-17T03:34:01.473Z,6.13
2023-01-17T03:37:04.319Z,6.63
2023-01-17T03:40:08.084Z,6.25
2023-01-17T03:43:11.014Z,5.95
2023-01-17T03:46:25.721Z,6.15
2023-01-17T03:49:29.363Z,6.68
2023-01-17T03:52:32.483Z,6.60
2023-01-17T03:55:35.356Z,6.88
2023-01-17T03:58:38.069Z,6.22
2023-01-17T04:01:41.000Z,7.72
2023-01-17T04:04:43.810Z,6.70
2023-01-17T04:07:46.597Z,5.90
2023-01-17T04:10:49.329Z,6.55
2023-01-17T04:13:52.244Z,6.32
2023-01-17T04:16:56.290Z,7.28
2023-01-17T04:19:59.531Z,5.55
2023-01-17T04:23:03.296Z,5.70
2023-01-17T04:26:06.357Z,7.03
2023-01-17T04:29:09.104Z,6.65
2023-01-17T04:32:11.948Z,5.70
2023-01-17T04:35:15.047Z,7.05
2023-01-17T04:38:18.132Z,6.43
2023-01-17T04:41:21.148Z,7.53
2023-01-17T04:44:24.176Z,6.18
2023-01-17T04:47:26.989Z,5.72
2023-01-17T04:50:29.876Z,6.07
2023-01-17T04:53:32.998Z,6.37
2023-01-17T04:56:35.734Z,7.25
2023-01-17T04:59:38.659Z,6.38
2023-01-17T05:02:41.857Z,5.95
2023-01-17T05:05:44.663Z,6.18
2023-01-17T05:08:47.506Z,5.77
2023-01-17T05:11:50.383Z,5.28
2023-01-17T05:14:53.197Z,5.88
2023-01-17T05:17:56.574Z,6.05
2023-01-17T05:21:03.957Z,5.93
2023-01-17T05:24:07.230Z,5.40
2023-01-17T05:27:11.101Z,5.90
2023-01-17T05:30:14.067Z,5.65
2023-01-17T05:33:16.825Z,6.07
2023-01-17T05:36:21.158Z,6.55
2023-01-17T05:39:24.204Z,5.67
2023-01-17T05:42:27.196Z,7.32
2023-01-17T05:45:30.990Z,5.43
2023-01-17T05:48:33.730Z,6.00
2023-01-17T05:51:38.070Z,5.97
2023-01-17T05:54:40.863Z,6.23
2023-01-17T05:57:43.621Z,5.75
2023-01-17T06:00:47.093Z,5.72
2023-01-17T06:03:50.570Z,6.65
2023-01-17T06:06:54.005Z,5.63
2023-01-17T06:09:57.064Z,5.80
2023-01-17T06:13:08.387Z,5.93
2023-01-17T06:16:11.440Z,5.28
2023-01-17T06:19:14.458Z,5.65
2023-01-17T06:22:17.291Z,6.10
2023-01-17T06:25:20.083Z,5.10
2023-01-17T06:28:23.865Z,5.35
2023-01-17T06:31:26.735Z,6.00
2023-01-17T06:34:29.597Z,5.18
2023-01-17T06:37:32.324Z,5.50
2023-01-17T06:40:35.259Z,5.10
2023-01-17T06:43:38.113Z,6.80
2023-01-17T06:46:41.338Z,6.65
2023-01-17T06:49:44.085Z,7.68
2023-01-17T06:52:58.893Z,5.20
2023-01-17T06:56:01.900Z,5.53
2023-01-17T06:59:05.317Z,6.40
2023-01-17T07:02:11.239Z,6.13
2023-01-17T07:05:14.419Z,6.65
2023-01-17T07:08:18.355Z,6.78
2023-01-17T07:11:21.362Z,9.20
2023-01-17T07:14:24.255Z,6.93
2023-01-17T07:17:30.115Z,7.00
2023-01-17T07:20:33.606Z,6.68
2023-01-17T07:23:36.441Z,6.57
2023-01-17T07:26:40.322Z,6.70
2023-01-17T07:29:46.523Z,6.85
2023-01-17T07:32:54.083Z,6.68
2023-01-17T07:35:56.859Z,5.25
2023-01-17T07:38:59.713Z,6.93
2023-01-17T07:42:02.476Z,6.20
2023-01-17T07:45:05.873Z,6.35
2023-01-17T07:48:08.737Z,6.10
2023-01-17T07:51:11.509Z,7.40
2023-01-17T07:54:14.486Z,6.88
2023-01-17T07:57:17.330Z,6.60
2023-01-17T08:00:20.726Z,5.80
2023-01-17T08:03:23.510Z,6.85
2023-01-17T08:06:26.294Z,5.82
2023-01-17T08:09:29.196Z,6.18
2023-01-17T08:12:31.916Z,6.20
2023-01-17T08:15:34.891Z,8.18
2023-01-17T08:18:38.160Z,6.40
2023-01-17T08:21:42.059Z,6.88
2023-01-17T08:24:44.870Z,7.22
2023-01-17T08:27:48.041Z,7.07
2023-01-17T08:30:51.524Z,6.80
2023-01-17T08:33:54.450Z,6.13
2023-01-17T08:36:57.301Z,5.57
2023-01-17T08:40:00.883Z,7.70
2023-01-17T08:43:04.220Z,6.80
2023-01-17T08:46:07.181Z,5.63
2023-01-17T08:49:11.210Z,6.47
2023-01-17T08:52:14.624Z,7.50
2023-01-17T08:55:18.008Z,7.47
2023-01-17T08:58:24.381Z,5.73
2023-01-17T09:01:31.078Z,7.15
2023-01-17T09:04:35.299Z,6.97
2023-01-17T09:07:38.297Z,7.00
2023-01-17T09:10:41.288Z,6.43
2023-01-17T09:13:46.254Z,7.00
2023-01-17T09:16:49.117Z,6.40
2023-01-17T09:20:03.855Z,6.40
2023-01-17T09:23:10.955Z,7.22
2023-01-17T09:26:25.395Z,7.03
2023-01-17T09:29:28.338Z,6.17
2023-01-17T09:32:31.197Z,6.95
2023-01-17T09:35:34.783Z,5.90
2023-01-17T09:38:37.848Z,5.90
2023-01-17T09:41:57.839Z,7.45
2023-01-17T09:45:00.791Z,5.93
2023-01-17T09:48:14.550Z,6.22
2023-01-17T09:51:24.267Z,6.75
2023-01-17T09:54:35.255Z,6.63
2023-01-17T09:57:59.849Z,6.22
2023-01-17T10:01:22.854Z,6.17
2023-01-17T10:05:02.203Z,9.13
2023-01-17T10:08:14.528Z,7.90
2023-01-17T10:11:23.464Z,7.15
2023-01-17T10:14:36.634Z,8.25
2023-01-17T10:17:44.063Z,9.80
2023-01-17T10:21:14.767Z,12.68
2023-01-17T10:24:55.484Z,7.50
2023-01-17T10:28:04.436Z,8.15
2023-01-17T10:31:22.661Z,8.07
2023-01-17T10:34:32.383Z,15.10
2023-01-17T10:37:38.390Z,13.43
2023-01-17T10:40:55.076Z,12.52
2023-01-17T10:44:12.686Z,10.82
2023-01-17T10:47:21.534Z,9.48
2023-01-17T10:50:26.380Z,8.17
2023-01-17T10:54:01.775Z,9.93
2023-01-17T10:57:05.190Z,11.20
2023-01-17T11:00:29.552Z,7.25
2023-01-17T11:03:33.464Z,10.15
2023-01-17T11:06:49.735Z,10.20
2023-01-17T11:10:00.394Z,7.55
2023-01-17T11:13:25.229Z,9.15
2023-01-17T11:16:31.564Z,7.30
2023-01-17T11:19:36.408Z,8.20
2023-01-17T11:22:39.630Z,7.73
2023-01-17T11:26:43.656Z,8.40
2023-01-17T11:29:47.510Z,9.43
2023-01-17T11:32:54.255Z,8.43
2023-01-17T11:35:59.752Z,8.27
2023-01-17T11:39:24.532Z,8.60
2023-01-17T11:42:37.558Z,9.27
2023-01-17T11:45:43.514Z,8.00
2023-01-17T11:48:56.480Z,8.95
2023-01-17T11:52:00.413Z,10.50
2023-01-17T11:55:03.227Z,9.50
2023-01-17T11:58:06.035Z,8.88
2023-01-17T12:01:08.907Z,10.98
2023-01-17T12:04:40.203Z,10.52
2023-01-17T12:08:00.977Z,11.90
2023-01-17T12:11:19.071Z,12.17
2023-01-17T12:14:51.597Z,11.40
2023-01-17T12:18:26.181Z,10.98
2023-01-17T12:21:28.920Z,9.18
2023-01-17T12:24:52.737Z,9.90
2023-01-17T12:28:04.205Z,11.30
2023-01-17T12:31:13.498Z,11.98
2023-01-17T12:34:18.996Z,11.32
2023-01-17T12:37:37.353Z,10.73
2023-01-17T12:40:49.686Z,10.20
2023-01-17T12:44:01.622Z,9.87
2023-01-17T12:47:05.902Z,10.45
2023-01-17T12:50:14.984Z,10.35
2023-01-17T12:53:26.559Z,10.10
2023-01-17T12:56:40.451Z,10.32
2023-01-17T12:59:58.214Z,12.67
2023-01-17T13:03:16.225Z,13.02
2023-01-17T13:06:42.427Z,12.00
2023-01-17T13:09:53.566Z,9.20
2023-01-17T13:13:00.069Z,8.52
2023-01-17T13:16:13.642Z,10.03
2023-01-17T13:19:31.411Z,11.07
2023-01-17T13:22:37.802Z,10.35
2023-01-17T13:25:46.199Z,10.90
2023-01-17T13:28:57.232Z,10.30
2023-01-17T13:32:24.044Z,12.50
2023-01-17T13:35:36.147Z,12.63
2023-01-17T13:39:09.660Z,10.85
2023-01-17T13:42:29.105Z,11.30
2023-01-17T13:45:38.435Z,11.32
2023-01-17T13:48:42.059Z,11.50
2023-01-17T13:52:11.132Z,12.13
2023-01-17T13:55:45.151Z,12.65
2023-01-17T13:59:06.188Z,16.02
2023-01-17T14:02:32.089Z,12.48
2023-01-17T14:05:40.613Z,14.37
2023-01-17T14:08:45.694Z,17.63
2023-01-17T14:12:11.109Z,15.38
2023-01-17T14:15:21.338Z,15.68
2023-01-17T14:18:38.988Z,12.48
2023-01-17T14:21:41.767Z,14.33
2023-01-17T14:25:09.988Z,14.43
2023-01-17T14:28:39.048Z,12.27
2023-01-17T14:31:42.473Z,13.13
2023-01-17T14:34:47.759Z,15.00
2023-01-17T14:37:54.451Z,13.63
2023-01-17T14:41:09.686Z,12.07
2023-01-17T14:44:12.998Z,11.20
2023-01-17T14:47:17.059Z,13.90
2023-01-17T14:50:25.981Z,12.52
2023-01-17T14:53:33.439Z,11.53
2023-01-17T14:56:36.220Z,13.00
2023-01-17T14:59:39.097Z,15.55
2023-01-17T15:02:43.880Z,14.32
2023-01-17T15:05:50.064Z,11.68
2023-01-17T15:08:55.566Z,13.10
2023-01-17T15:11:59.339Z,14.77
2023-01-17T15:15:02.092Z,14.55
2023-01-17T15:18:17.183Z,12.90
2023-01-17T15:21:23.408Z,11.65
2023-01-17T15:24:28.942Z,12.33
2023-01-17T15:27:32.370Z,13.80
2023-01-17T15:30:35.114Z,9.82
2023-01-17T15:33:41.314Z,12.05
2023-01-17T15:37:00.329Z,12.43
2023-01-17T15:40:20.080Z,10.10
2023-01-17T15:43:39.307Z,10.82
2023-01-17T15:46:46.261Z,12.50
2023-01-17T15:49:52.450Z,12.07
2023-01-17T15:53:04.819Z,10.13
2023-01-17T15:56:36.597Z,12.87
2023-01-17T16:00:05.966Z,13.05
2023-01-17T16:03:21.940Z,13.40
2023-01-17T16:06:45.787Z,13.18
2023-01-17T16:09:50.896Z,10.82
2023-01-17T16:12:56.186Z,11.80
2023-01-17T16:16:24.057Z,12.63
2023-01-17T16:19:27.106Z,10.02
2023-01-17T16:22:29.874Z,10.85
2023-01-17T16:25:33.225Z,11.15
2023-01-17T16:28:45.009Z,10.33
2023-01-17T16:31:50.009Z,10.95
2023-01-17T16:34:55.420Z,9.55
2023-01-17T16:38:07.436Z,10.20
2023-01-17T16:41:10.343Z,9.73
2023-01-17T16:44:13.140Z,9.33
2023-01-17T16:47:19.380Z,11.20
2023-01-17T16:50:24.730Z,8.52
2023-01-17T16:53:32.102Z,8.82
2023-01-17T16:56:34.991Z,11.10
2023-01-17T16:59:50.152Z,9.07
2023-01-17T17:02:54.215Z,10.90
2023-01-17T17:05:59.594Z,10.63
2023-01-17T17:09:02.570Z,9.38
2023-01-17T17:12:06.145Z,9.10
2023-01-17T17:15:10.200Z,7.93
2023-01-17T17:18:15.800Z,9.40
2023-01-17T17:21:18.953Z,9.55
2023-01-17T17:24:21.976Z,8.23
2023-01-17T17:27:31.106Z,10.65
2023-01-17T17:30:34.951Z,9.43
2023-01-17T17:33:38.880Z,8.55
2023-01-17T17:36:43.518Z,7.88
2023-01-17T17:39:46.599Z,8.13
2023-01-17T17:42:49.721Z,9.38
2023-01-17T17:45:54.065Z,8.17
2023-01-17T17:48:59.143Z,8.20
2023-01-17T17:52:07.696Z,8.43
2023-01-17T17:55:13.454Z,8.57
2023-01-17T17:58:16.801Z,11.07
2023-01-17T18:01:24.414Z,8.57
2023-01-17T18:04:28.678Z,8.70
2023-01-17T18:07:33.090Z,8.35
2023-01-17T18:10:45.823Z,7.65
2023-01-17T18:13:51.263Z,9.30
2023-01-17T18:16:57.706Z,7.67
2023-01-17T18:20:01.550Z,7.85
2023-01-17T18:23:05.116Z,8.75
2023-01-17T18:26:17.601Z,11.85
2023-01-17T18:29:22.729Z,9.30
2023-01-17T18:32:26.775Z,8.50
2023-01-17T18:35:30.860Z,7.78
2023-01-17T18:38:47.534Z,9.45
2023-01-17T18:41:55.268Z,8.02
2023-01-17T18:45:01.562Z,9.25
2023-01-17T18:48:08.696Z,7.80
2023-01-17T18:51:14.753Z,8.63
2023-01-17T18:54:21.800Z,7.40
2023-01-17T18:57:25.617Z,7.90
2023-01-17T19:00:30.349Z,8.40
2023-01-17T19:03:33.933Z,8.80
2023-01-17T19:06:42.487Z,8.15
2023-01-17T19:09:47.474Z,8.13
2023-01-17T19:12:51.601Z,8.50
2023-01-17T19:16:00.692Z,9.23
2023-01-17T19:19:09.007Z,9.03
2023-01-17T19:22:12.711Z,9.00
2023-01-17T19:25:16.271Z,8.20
2023-01-17T19:28:20.091Z,8.27
2023-01-17T19:31:27.974Z,7.70
2023-01-17T19:34:33.505Z,9.20
2023-01-17T19:37:39.639Z,8.85
2023-01-17T19:40:43.941Z,8.25
2023-01-17T19:43:48.456Z,8.57
2023-01-17T19:46:52.423Z,7.57
2023-01-17T19:49:56.322Z,8.03
2023-01-17T19:53:00.050Z,8.65
2023-01-17T19:56:08.220Z,7.43
2023-01-17T19:59:14.386Z,6.65
2023-01-17T20:02:18.137Z,7.78
2023-01-17T20:05:23.175Z,7.13
2023-01-17T20:08:27.126Z,6.38
2023-01-17T20:11:32.084Z,8.07
2023-01-17T20:14:37.888Z,8.63
2023-01-17T20:17:42.739Z,8.15
2023-01-17T20:20:57.025Z,7.90
2023-01-17T20:24:05.161Z,9.38
2023-01-17T20:27:08.647Z,7.88
2023-01-17T20:30:20.049Z,7.43
2023-01-17T20:33:44.134Z,7.40
2023-01-17T20:36:48.162Z,8.10
2023-01-17T20:39:54.261Z,7.63
2023-01-17T20:42:57.663Z,7.55
2023-01-17T20:46:05.835Z,8.05
2023-01-17T20:49:15.635Z,8.13
2023-01-17T20:52:20.731Z,7.53
2023-01-17T20:55:24.688Z,7.30
2023-01-17T20:58:30.923Z,6.78
2023-01-17T21:01:35.113Z,7.28
2023-01-17T21:04:38.521Z,6.90
2023-01-17T21:07:42.668Z,6.67
2023-01-17T21:10:50.040Z,6.93
2023-01-17T21:13:53.055Z,7.65
2023-01-17T21:16:56.365Z,6.93
2023-01-17T21:19:59.380Z,7.35
2023-01-17T21:23:02.470Z,7.73
2023-01-17T21:26:06.920Z,7.57
2023-01-17T21:29:10.520Z,6.57
2023-01-17T21:32:21.453Z,6.45
2023-01-17T21:35:24.381Z,6.22
2023-01-17T21:38:31.905Z,7.93
2023-01-17T21:41:39.422Z,8.32
2023-01-17T21:44:42.434Z,6.90
2023-01-17T21:47:45.177Z,7.20
2023-01-17T21:50:48.053Z,7.85
2023-01-17T21:53:50.915Z,6.43
2023-01-17T21:57:12.276Z,6.68
2023-01-17T22:00:15.704Z,6.60
2023-01-17T22:03:18.682Z,7.00
2023-01-17T22:06:27.638Z,7.57
2023-01-17T22:09:30.401Z,6.53
2023-01-17T22:12:33.259Z,6.20
2023-01-17T22:15:36.620Z,6.78
2023-01-17T22:18:41.255Z,6.90
2023-01-17T22:21:44.210Z,6.47
2023-01-17T22:24:47.390Z,6.43
2023-01-17T22:27:50.222Z,6.82
2023-01-17T22:30:53.229Z,6.97
2023-01-17T22:34:02.975Z,6.85
2023-01-17T22:37:10.224Z,6.13
2023-01-17T22:40:13.399Z,5.40
2023-01-17T22:43:16.080Z,6.25
2023-01-17T22:46:21.654Z,6.63
2023-01-17T22:49:24.725Z,6.35
2023-01-17T22:52:27.785Z,7.43
2023-01-17T22:55:30.584Z,6.00
2023-01-17T22:58:34.237Z,5.88
2023-01-17T23:01:40.506Z,5.63
2023-01-17T23:04:43.326Z,6.13
2023-01-17T23:07:49.788Z,6.00
2023-01-17T23:11:28.093Z,5.63
2023-01-17T23:14:54.049Z,5.88
2023-01-17T23:18:15.387Z,6.95
2023-01-17T23:21:18.304Z,6.13
2023-01-17T23:24:21.133Z,5.60
2023-01-17T23:28:04.863Z,6.30
2023-01-17T23:31:10.522Z,5.90
2023-01-17T23:34:13.313Z,5.03
2023-01-17T23:37:16.152Z,5.57
2023-01-17T23:40:19.501Z,5.63
2023-01-17T23:43:25.273Z,5.13
2023-01-17T23:46:30.193Z,5.80
2023-01-17T23:49:33.433Z,6.28
2023-01-17T23:52:36.706Z,5.78
2023-01-17T23:55:41.941Z,5.65
2023-01-17T23:58:45.135Z,5.30
